createdAt,value
2017-04-30T00:01:50.893Z,3.80
2017-04-30T00:04:19.250Z,3.52
2017-04-30T00:06:47.560Z,6.34
2017-04-30T00:09:15.876Z,4.44
2017-04-30T00:11:44.224Z,3.72
2017-04-30T00:14:12.527Z,4.60
2017-04-30T00:16:40.830Z,3.80
2017-04-30T00:19:09.180Z,5.50
2017-04-30T00:21:38.223Z,6.18
2017-04-30T00:24:06.529Z,3.68
2017-04-30T00:26:35.192Z,4.82
2017-04-30T00:29:03.504Z,5.24
2017-04-30T00:31:31.819Z,6.72
2017-04-30T00:34:00.944Z,3.02
2017-04-30T00:36:29.248Z,4.52
2017-04-30T00:38:57.556Z,3.26
2017-04-30T00:41:25.931Z,4.10
2017-04-30T00:43:54.232Z,3.68
2017-04-30T00:46:22.532Z,3.08
2017-04-30T00:48:50.956Z,4.10
2017-04-30T00:51:19.273Z,3.32
2017-04-30T00:53:47.581Z,4.00
2017-04-30T00:56:15.944Z,4.22
2017-04-30T00:58:44.246Z,4.88
2017-04-30T01:01:12.556Z,4.26
2017-04-30T01:03:40.925Z,6.02
2017-04-30T01:06:09.230Z,4.32
2017-04-30T01:08:38.008Z,3.42
2017-04-30T01:11:06.380Z,3.46
2017-04-30T01:13:34.688Z,3.94
2017-04-30T01:16:03.000Z,5.24
2017-04-30T01:18:31.372Z,4.08
2017-04-30T01:20:59.684Z,3.40
2017-04-30T01:23:27.989Z,4.06
2017-04-30T01:25:56.549Z,3.96
2017-04-30T01:28:24.844Z,4.82
2017-04-30T01:30:53.148Z,4.72
2017-04-30T01:33:22.444Z,4.00
2017-04-30T01:35:51.497Z,5.32
2017-04-30T01:38:19.813Z,3.26
2017-04-30T01:40:48.179Z,3.84
2017-04-30T01:43:16.484Z,3.80
2017-04-30T01:45:44.792Z,6.87
2017-04-30T01:48:13.637Z,3.24
2017-04-30T01:50:42.964Z,3.60
2017-04-30T01:53:11.277Z,5.78
2017-04-30T01:55:39.636Z,4.78
2017-04-30T01:58:08.689Z,4.50
2017-04-30T02:00:36.997Z,3.77
2017-04-30T02:03:06.097Z,5.28
2017-04-30T02:05:34.412Z,6.42
2017-04-30T02:08:02.742Z,4.74
2017-04-30T02:10:31.137Z,4.90
2017-04-30T02:12:59.445Z,4.48
2017-04-30T02:15:27.753Z,4.36
2017-04-30T02:17:56.113Z,5.87
2017-04-30T02:20:24.429Z,4.60
2017-04-30T02:22:52.736Z,5.35
2017-04-30T02:25:21.120Z,5.65
2017-04-30T02:27:49.441Z,4.97
2017-04-30T02:30:17.760Z,4.03
2017-04-30T02:32:46.124Z,6.02
2017-04-30T02:35:15.172Z,4.98
2017-04-30T02:37:43.484Z,4.50
2017-04-30T02:40:11.840Z,4.43
2017-04-30T02:42:40.144Z,6.24
2017-04-30T02:45:08.452Z,4.36
2017-04-30T02:47:37.548Z,5.60
2017-04-30T02:50:05.868Z,4.58
2017-04-30T02:52:34.196Z,4.43
2017-04-30T02:55:02.580Z,7.10
2017-04-30T02:57:30.908Z,4.72
2017-04-30T02:59:59.221Z,6.48
2017-04-30T03:02:27.576Z,5.70
2017-04-30T03:04:55.884Z,4.42
2017-04-30T03:07:24.192Z,4.68
2017-04-30T03:09:52.548Z,6.47
2017-04-30T03:12:20.865Z,4.43
2017-04-30T03:14:49.177Z,5.23
2017-04-30T03:17:17.532Z,5.13
2017-04-30T03:19:45.840Z,7.90
2017-04-30T03:22:14.896Z,4.77
2017-04-30T03:24:43.420Z,4.67
2017-04-30T03:27:11.725Z,4.87
2017-04-30T03:29:40.032Z,6.87
2017-04-30T03:32:08.385Z,4.97
2017-04-30T03:34:36.706Z,5.73
2017-04-30T03:37:05.020Z,6.25
2017-04-30T03:39:45.160Z,7.62
2017-04-30T03:42:25.353Z,4.62
2017-04-30T03:45:05.728Z,5.05
2017-04-30T03:47:45.688Z,6.95
2017-04-30T03:50:25.976Z,4.62
2017-04-30T03:53:06.228Z,4.72
2017-04-30T03:55:47.205Z,4.30
2017-04-30T03:58:28.101Z,4.38
2017-04-30T04:01:08.804Z,5.02
2017-04-30T04:03:49.785Z,5.10
2017-04-30T04:06:29.945Z,3.77
2017-04-30T04:09:09.992Z,4.08
2017-04-30T04:11:50.065Z,5.82
2017-04-30T04:14:31.081Z,4.18
2017-04-30T04:17:11.336Z,4.25
2017-04-30T04:19:51.488Z,5.18
2017-04-30T04:22:31.875Z,4.77
2017-04-30T04:25:12.164Z,7.83
2017-04-30T04:27:52.324Z,4.95
2017-04-30T04:30:33.225Z,4.45
2017-04-30T04:33:13.287Z,5.52
2017-04-30T04:35:53.472Z,4.80
2017-04-30T04:38:34.416Z,7.08
2017-04-30T04:41:14.608Z,4.63
2017-04-30T04:43:54.993Z,4.02
2017-04-30T04:46:35.199Z,4.17
2017-04-30T04:49:15.480Z,6.10
2017-04-30T04:51:56.173Z,4.33
2017-04-30T04:54:36.697Z,4.53
2017-04-30T04:57:16.901Z,6.02
2017-04-30T04:59:57.045Z,5.90
2017-04-30T05:02:37.108Z,5.62
2017-04-30T05:05:18.020Z,5.08
2017-04-30T05:07:58.216Z,5.73
2017-04-30T05:10:38.405Z,5.27
2017-04-30T05:13:18.474Z,5.07
2017-04-30T05:15:59.389Z,6.20
2017-04-30T05:18:39.659Z,5.58
2017-04-30T05:21:19.812Z,5.80
2017-04-30T05:24:00.712Z,6.72
2017-04-30T05:26:40.806Z,9.34
2017-04-30T05:29:21.013Z,6.57
2017-04-30T05:32:01.189Z,5.73
2017-04-30T05:34:41.276Z,8.52
2017-04-30T05:37:21.665Z,6.52
2017-04-30T05:40:02.721Z,5.18
2017-04-30T05:42:42.849Z,8.80
2017-04-30T05:45:23.544Z,5.30
2017-04-30T05:48:03.836Z,6.08
2017-04-30T05:50:43.977Z,4.83
2017-04-30T05:53:24.212Z,7.62
2017-04-30T05:56:04.340Z,6.72
2017-04-30T05:58:44.445Z,5.32
2017-04-30T06:01:24.563Z,7.44
2017-04-30T06:04:04.616Z,5.90
2017-04-30T06:06:44.647Z,5.28
2017-04-30T06:09:24.808Z,6.06
2017-04-30T06:12:04.970Z,6.70
2017-04-30T06:14:45.095Z,9.02
2017-04-30T06:17:25.188Z,6.08
2017-04-30T06:20:05.648Z,5.82
2017-04-30T06:22:45.897Z,4.80
2017-04-30T06:25:26.057Z,5.96
2017-04-30T06:28:06.287Z,6.48
2017-04-30T06:30:46.500Z,8.74
2017-04-30T06:33:26.657Z,5.44
2017-04-30T06:36:06.726Z,8.82
2017-04-30T06:38:46.668Z,7.42
2017-04-30T06:41:27.092Z,10.84
2017-04-30T06:44:07.176Z,9.42
2017-04-30T06:46:47.464Z,6.54
2017-04-30T06:49:27.456Z,8.82
2017-04-30T06:52:07.772Z,7.58
2017-04-30T06:54:47.840Z,9.96
2017-04-30T06:57:28.152Z,8.22
2017-04-30T07:00:08.248Z,9.64
2017-04-30T07:02:48.489Z,14.44
2017-04-30T07:05:28.505Z,9.08
2017-04-30T07:08:08.668Z,8.16
2017-04-30T07:10:48.847Z,9.70
2017-04-30T07:13:28.957Z,12.00
2017-04-30T07:16:09.129Z,10.42
2017-04-30T07:21:36.041Z,14.86
2017-04-30T07:24:16.105Z,15.02
2017-04-30T07:26:57.008Z,10.24
2017-04-30T07:29:37.104Z,9.28
2017-04-30T07:32:17.742Z,11.50
2017-04-30T07:34:58.769Z,11.82
2017-04-30T07:37:39.024Z,11.78
2017-04-30T07:40:19.205Z,10.18
2017-04-30T07:42:47.557Z,18.02
2017-04-30T07:45:15.860Z,14.82
2017-04-30T07:47:44.164Z,9.68
2017-04-30T07:50:13.256Z,11.76
2017-04-30T07:52:41.565Z,10.60
2017-04-30T07:55:09.873Z,10.20
2017-04-30T07:57:40.077Z,11.42
2017-04-30T08:00:09.124Z,10.76
2017-04-30T08:02:37.429Z,13.90
2017-04-30T08:05:06.908Z,9.32
2017-04-30T08:07:35.221Z,16.48
2017-04-30T08:10:03.548Z,9.82
2017-04-30T08:12:32.183Z,7.62
2017-04-30T08:15:00.528Z,12.62
2017-04-30T08:17:28.828Z,14.16
2017-04-30T08:19:57.185Z,11.84
2017-04-30T08:22:26.232Z,12.70
2017-04-30T08:24:54.539Z,9.92
2017-04-30T08:27:23.636Z,11.94
2017-04-30T08:29:51.944Z,9.54
2017-04-30T08:32:20.258Z,12.52
2017-04-30T08:34:48.612Z,10.60
2017-04-30T08:37:16.925Z,12.76
2017-04-30T08:39:45.301Z,13.96
2017-04-30T08:42:13.784Z,13.84
2017-04-30T08:44:42.833Z,10.48
2017-04-30T08:47:11.133Z,7.18
2017-04-30T08:49:40.224Z,12.44
2017-04-30T08:52:08.533Z,10.22
2017-04-30T08:54:36.845Z,13.36
2017-04-30T08:57:05.512Z,14.42
2017-04-30T08:59:34.561Z,6.90
2017-04-30T09:02:02.873Z,17.32
2017-04-30T09:04:31.357Z,11.68
2017-04-30T09:06:59.664Z,14.18
2017-04-30T09:09:27.973Z,25.68
2017-04-30T09:11:56.324Z,11.04
2017-04-30T09:14:24.632Z,25.02
2017-04-30T09:16:52.932Z,34.90
2017-04-30T09:19:21.293Z,32.82
2017-04-30T09:21:50.345Z,12.96
2017-04-30T09:24:18.656Z,17.64
2017-04-30T09:26:47.021Z,19.90
2017-04-30T09:29:15.332Z,10.84
2017-04-30T09:31:43.641Z,32.22
2017-04-30T09:34:12.284Z,18.56
2017-04-30T09:36:40.584Z,15.10
2017-04-30T09:39:08.897Z,17.68
2017-04-30T09:41:38.092Z,21.18
2017-04-30T09:44:07.136Z,7.88
2017-04-30T09:46:35.448Z,18.40
2017-04-30T09:49:03.813Z,13.76
2017-04-30T09:51:32.138Z,16.16
2017-04-30T09:54:00.444Z,19.96
2017-04-30T09:56:28.797Z,32.34
2017-04-30T09:58:57.102Z,24.62
2017-04-30T10:01:25.408Z,16.76
2017-04-30T10:03:54.500Z,15.00
2017-04-30T10:06:23.549Z,25.74
2017-04-30T10:08:51.865Z,19.22
2017-04-30T10:11:20.224Z,14.40
2017-04-30T10:13:48.533Z,10.40
2017-04-30T10:16:16.844Z,10.88
2017-04-30T10:18:45.191Z,11.08
2017-04-30T10:21:14.237Z,10.90
2017-04-30T10:23:42.536Z,9.74
2017-04-30T10:26:11.189Z,8.90
2017-04-30T10:28:40.246Z,10.30
2017-04-30T10:31:08.556Z,11.92
2017-04-30T10:33:36.941Z,9.34
2017-04-30T10:36:05.247Z,18.06
2017-04-30T10:38:33.556Z,23.44
2017-04-30T10:41:01.933Z,20.54
2017-04-30T10:43:30.266Z,14.84
2017-04-30T10:45:58.572Z,10.18
2017-04-30T10:48:26.957Z,15.88
2017-04-30T10:50:55.269Z,15.12
2017-04-30T10:53:23.581Z,14.70
2017-04-30T10:55:52.172Z,10.30
2017-04-30T10:58:20.487Z,9.62
2017-04-30T11:00:48.793Z,5.62
2017-04-30T11:03:17.148Z,6.90
2017-04-30T11:05:46.197Z,12.70
2017-04-30T11:08:14.513Z,11.06
2017-04-30T11:10:42.873Z,13.86
2017-04-30T11:13:11.182Z,7.52
2017-04-30T11:15:39.485Z,9.24
2017-04-30T11:18:08.762Z,11.20
2017-04-30T11:20:37.069Z,9.28
2017-04-30T11:23:05.389Z,5.12
2017-04-30T11:25:33.751Z,4.64
2017-04-30T11:28:02.804Z,11.92
2017-04-30T11:30:31.896Z,8.02
2017-04-30T11:33:00.246Z,4.90
2017-04-30T11:35:28.552Z,4.74
2017-04-30T11:37:56.854Z,4.22
2017-04-30T11:40:25.204Z,8.80
2017-04-30T11:42:53.505Z,6.04
2017-04-30T11:45:24.617Z,4.20
2017-04-30T11:47:52.964Z,5.38
2017-04-30T11:50:21.276Z,6.78
2017-04-30T11:52:50.344Z,11.28
2017-04-30T11:55:18.698Z,8.66
2017-04-30T11:57:47.004Z,7.46
2017-04-30T12:00:15.312Z,7.64
2017-04-30T12:02:43.677Z,13.56
2017-04-30T12:05:11.980Z,9.58
2017-04-30T12:07:41.021Z,4.90
2017-04-30T12:10:09.372Z,8.26
2017-04-30T12:12:37.676Z,6.88
2017-04-30T12:15:06.831Z,5.04
2017-04-30T12:17:35.190Z,8.38
2017-04-30T12:20:03.525Z,12.04
2017-04-30T12:22:31.843Z,12.74
2017-04-30T12:25:00.965Z,7.82
2017-04-30T12:27:29.281Z,5.14
2017-04-30T12:29:58.320Z,4.96
2017-04-30T12:32:26.664Z,9.98
2017-04-30T12:34:54.965Z,6.92
2017-04-30T12:37:23.268Z,7.34
2017-04-30T12:39:51.628Z,9.62
2017-04-30T12:42:19.933Z,3.98
2017-04-30T12:44:48.236Z,5.30
2017-04-30T12:47:17.520Z,6.08
2017-04-30T12:49:45.820Z,9.28
2017-04-30T12:52:14.121Z,6.80
2017-04-30T12:54:42.472Z,5.22
2017-04-30T12:57:10.772Z,7.50
2017-04-30T12:59:39.818Z,3.58
2017-04-30T13:02:08.165Z,4.08
2017-04-30T13:04:36.480Z,5.62
2017-04-30T13:07:05.539Z,4.10
2017-04-30T13:09:33.928Z,11.22
2017-04-30T13:12:02.254Z,20.82
2017-04-30T13:14:30.572Z,20.44
2017-04-30T13:16:58.933Z,9.68
2017-04-30T13:19:27.237Z,7.26
2017-04-30T13:21:55.540Z,7.00
2017-04-30T13:24:24.648Z,4.66
2017-04-30T13:26:52.949Z,5.42
2017-04-30T13:29:21.260Z,6.46
2017-04-30T13:31:49.749Z,7.94
2017-04-30T13:34:18.062Z,4.52
2017-04-30T13:36:47.112Z,29.74
2017-04-30T13:39:15.468Z,44.62
2017-04-30T13:41:43.772Z,30.90
2017-04-30T13:44:12.815Z,28.00
2017-04-30T13:46:41.164Z,7.30
2017-04-30T13:49:09.469Z,8.92
2017-04-30T13:51:37.766Z,6.82
2017-04-30T13:54:06.124Z,10.10
2017-04-30T13:56:34.436Z,4.86
2017-04-30T13:59:02.752Z,5.70
2017-04-30T14:01:31.137Z,4.66
2017-04-30T14:03:59.441Z,7.42
2017-04-30T14:06:28.480Z,8.96
2017-04-30T14:08:56.825Z,7.16
2017-04-30T14:11:25.128Z,4.86
2017-04-30T14:13:53.432Z,7.22
2017-04-30T14:16:21.984Z,4.44
2017-04-30T14:18:51.037Z,7.54
2017-04-30T14:21:19.358Z,10.52
2017-04-30T14:23:47.718Z,6.32
2017-04-30T14:26:16.021Z,6.50
2017-04-30T14:28:44.325Z,13.16
2017-04-30T14:31:12.676Z,10.74
2017-04-30T14:33:40.980Z,8.68
2017-04-30T14:36:09.280Z,8.46
2017-04-30T14:38:37.961Z,6.92
2017-04-30T14:41:07.008Z,18.44
2017-04-30T14:43:35.321Z,11.10
2017-04-30T14:46:03.681Z,4.22
2017-04-30T14:48:31.980Z,9.32
2017-04-30T14:51:00.283Z,7.24
2017-04-30T14:53:29.376Z,8.84
2017-04-30T14:55:58.420Z,5.14
2017-04-30T14:58:26.722Z,5.68
2017-04-30T15:00:55.812Z,3.48
2017-04-30T15:03:24.113Z,8.84
2017-04-30T15:05:52.412Z,6.42
2017-04-30T15:08:21.545Z,7.48
2017-04-30T15:10:49.853Z,8.82
2017-04-30T15:13:18.157Z,4.68
2017-04-30T15:15:46.504Z,7.92
2017-04-30T15:18:14.804Z,11.06
2017-04-30T15:20:43.104Z,9.16
2017-04-30T15:23:12.192Z,6.88
2017-04-30T15:25:41.233Z,9.02
2017-04-30T15:28:09.537Z,14.34
2017-04-30T15:30:38.624Z,8.48
2017-04-30T15:33:06.925Z,6.06
2017-04-30T15:35:35.229Z,4.26
2017-04-30T15:38:04.328Z,4.30
2017-04-30T15:40:32.636Z,14.62
2017-04-30T15:43:00.942Z,5.34
2017-04-30T15:45:30.029Z,9.06
2017-04-30T15:47:59.074Z,8.32
2017-04-30T15:50:27.384Z,19.72
2017-04-30T15:52:56.110Z,6.00
2017-04-30T15:55:24.412Z,8.56
2017-04-30T15:57:52.721Z,15.66
2017-04-30T16:00:21.068Z,8.68
2017-04-30T16:02:49.666Z,15.30
2017-04-30T16:05:17.984Z,11.90
2017-04-30T16:07:46.336Z,9.34
2017-04-30T16:10:14.644Z,14.82
2017-04-30T16:12:42.949Z,7.50
2017-04-30T16:15:11.393Z,18.94
2017-04-30T16:17:39.696Z,7.12
2017-04-30T16:20:08.010Z,11.14
2017-04-30T16:22:36.369Z,10.38
2017-04-30T16:25:04.682Z,6.60
2017-04-30T16:27:32.999Z,3.90
2017-04-30T16:30:01.352Z,3.68
2017-04-30T16:32:29.662Z,3.46
2017-04-30T16:34:57.965Z,3.54
2017-04-30T16:37:26.313Z,5.18
2017-04-30T16:39:54.621Z,13.00
2017-04-30T16:42:23.666Z,8.36
2017-04-30T16:44:52.022Z,4.72
2017-04-30T16:47:20.337Z,9.10
2017-04-30T16:49:48.641Z,9.42
2017-04-30T16:52:17.000Z,5.08
2017-04-30T16:54:45.333Z,3.24
2017-04-30T16:57:13.636Z,3.24
2017-04-30T16:59:42.344Z,4.32
2017-04-30T17:02:11.392Z,17.24
2017-04-30T17:04:39.693Z,2.96
2017-04-30T17:07:08.885Z,2.96
2017-04-30T17:09:37.189Z,6.50
2017-04-30T17:12:05.492Z,3.74
2017-04-30T17:14:33.880Z,5.42
2017-04-30T17:17:02.196Z,8.26
2017-04-30T17:19:30.503Z,7.70
2017-04-30T17:21:58.873Z,4.24
2017-04-30T17:24:27.177Z,5.40
2017-04-30T17:26:55.480Z,4.42
2017-04-30T17:29:23.867Z,7.00
2017-04-30T17:31:52.163Z,9.72
2017-04-30T17:34:20.464Z,4.70
2017-04-30T17:36:49.556Z,3.52
2017-04-30T17:39:17.865Z,11.94
2017-04-30T17:41:46.167Z,7.20
2017-04-30T17:44:14.512Z,5.06
2017-04-30T17:46:42.812Z,4.10
2017-04-30T17:49:11.112Z,3.82
2017-04-30T17:51:39.723Z,2.98
2017-04-30T17:54:08.765Z,5.14
2017-04-30T17:56:37.077Z,5.92
2017-04-30T17:59:05.432Z,8.24
2017-04-30T18:01:33.744Z,5.04
2017-04-30T18:04:02.048Z,5.50
2017-04-30T18:06:31.444Z,5.42
2017-04-30T18:09:00.490Z,5.12
2017-04-30T18:11:28.792Z,3.76
2017-04-30T18:13:57.144Z,2.58
2017-04-30T18:16:26.184Z,4.82
2017-04-30T18:18:54.941Z,5.28
2017-04-30T18:21:23.292Z,4.74
2017-04-30T18:23:51.600Z,5.74
2017-04-30T18:26:19.904Z,3.18
2017-04-30T18:28:48.254Z,7.50
2017-04-30T18:31:16.560Z,5.96
2017-04-30T18:33:44.864Z,11.18
2017-04-30T18:36:13.952Z,5.30
2017-04-30T18:38:42.993Z,4.30
2017-04-30T18:41:11.297Z,3.80
2017-04-30T18:43:39.644Z,3.78
2017-04-30T18:46:08.688Z,13.20
2017-04-30T18:48:36.997Z,4.18
2017-04-30T18:51:06.084Z,5.38
2017-04-30T18:53:34.389Z,5.50
2017-04-30T18:56:02.692Z,4.24
2017-04-30T18:58:32.082Z,3.54
2017-04-30T19:01:01.125Z,3.60
2017-04-30T19:03:29.428Z,3.54
2017-04-30T19:05:58.516Z,8.10
2017-04-30T19:08:27.557Z,3.92
2017-04-30T19:10:55.857Z,3.18
2017-04-30T19:13:24.410Z,4.22
2017-04-30T19:15:53.456Z,2.76
2017-04-30T19:18:21.765Z,3.20
2017-04-30T19:20:50.120Z,3.68
2017-04-30T19:23:19.163Z,3.44
2017-04-30T19:25:47.469Z,5.26
2017-04-30T19:28:15.820Z,3.50
2017-04-30T19:30:44.864Z,5.02
2017-04-30T19:33:13.168Z,6.04
2017-04-30T19:35:42.257Z,3.02
2017-04-30T19:38:10.556Z,5.10
2017-04-30T19:40:38.861Z,3.80
2017-04-30T19:43:07.949Z,2.76
2017-04-30T19:45:36.997Z,3.20
2017-04-30T19:48:05.307Z,3.46
2017-04-30T19:50:33.671Z,2.56
2017-04-30T19:53:01.980Z,2.72
2017-04-30T19:55:30.284Z,2.74
2017-04-30T19:57:59.381Z,2.80
2017-04-30T20:00:27.685Z,3.56
2017-04-30T20:02:55.989Z,3.62
2017-04-30T20:05:25.076Z,2.42
2017-04-30T20:07:53.378Z,2.74
2017-04-30T20:10:21.685Z,3.16
2017-04-30T20:12:51.047Z,2.98
2017-04-30T20:15:19.348Z,3.34
2017-04-30T20:17:47.658Z,3.52
2017-04-30T20:20:16.008Z,3.18
2017-04-30T20:22:44.313Z,3.08
2017-04-30T20:25:13.356Z,2.50
2017-04-30T20:27:41.705Z,5.48
2017-04-30T20:30:10.004Z,4.44
2017-04-30T20:32:38.305Z,2.54
2017-04-30T20:35:06.992Z,2.38
2017-04-30T20:37:35.295Z,3.34
2017-04-30T20:40:03.605Z,2.90
2017-04-30T20:42:31.965Z,5.50
2017-04-30T20:45:00.268Z,2.80
2017-04-30T20:47:28.572Z,3.76
2017-04-30T20:49:57.932Z,3.70
2017-04-30T20:52:26.236Z,3.26
2017-04-30T20:54:54.541Z,2.44
2017-04-30T20:57:22.901Z,3.34
2017-04-30T20:59:51.215Z,3.20
2017-04-30T21:02:19.578Z,3.82
2017-04-30T21:04:48.228Z,3.20
2017-04-30T21:07:17.270Z,3.18
2017-04-30T21:09:45.572Z,3.48
2017-04-30T21:12:15.571Z,3.45
2017-04-30T21:14:44.619Z,4.70
2017-04-30T21:17:12.920Z,3.60
2017-04-30T21:19:42.040Z,3.28
2017-04-30T21:22:10.340Z,3.52
2017-04-30T21:24:38.644Z,3.40
2017-04-30T21:27:06.996Z,3.04
2017-04-30T21:29:35.305Z,3.16
2017-04-30T21:32:03.629Z,4.80
2017-04-30T21:34:32.027Z,3.64
2017-04-30T21:37:00.340Z,3.70
2017-04-30T21:39:29.384Z,2.92
2017-04-30T21:41:57.732Z,2.92
2017-04-30T21:44:26.033Z,4.40
2017-04-30T21:46:55.076Z,3.50
2017-04-30T21:49:23.428Z,2.88
2017-04-30T21:51:51.733Z,2.90
2017-04-30T21:54:20.793Z,3.24
2017-04-30T21:56:49.433Z,3.36
2017-04-30T21:59:17.833Z,3.70
2017-04-30T22:01:46.135Z,2.94
2017-04-30T22:04:14.685Z,8.60
2017-04-30T22:06:43.745Z,5.30
2017-04-30T22:09:12.801Z,2.92
2017-04-30T22:11:41.201Z,4.06
2017-04-30T22:14:10.244Z,2.98
2017-04-30T22:16:38.548Z,5.60
2017-04-30T22:19:07.641Z,3.34
2017-04-30T22:21:35.948Z,2.84
2017-04-30T22:24:04.256Z,4.38
2017-04-30T22:26:32.617Z,4.42
2017-04-30T22:29:01.670Z,3.44
2017-04-30T22:31:29.984Z,3.18
2017-04-30T22:33:58.333Z,2.98
2017-04-30T22:36:26.639Z,2.92
2017-04-30T22:38:55.624Z,4.22
2017-04-30T22:41:23.981Z,3.46
2017-04-30T22:43:52.296Z,3.28
2017-04-30T22:46:21.344Z,3.70
2017-04-30T22:48:50.088Z,3.30
2017-04-30T22:51:18.399Z,3.20
2017-04-30T22:53:47.443Z,3.42
2017-04-30T22:56:15.800Z,5.96
2017-04-30T22:58:44.104Z,3.40
2017-04-30T23:01:12.405Z,3.12
2017-04-30T23:03:41.496Z,3.30
2017-04-30T23:06:09.796Z,4.14
2017-04-30T23:08:38.100Z,4.32
2017-04-30T23:11:06.596Z,3.26
2017-04-30T23:13:34.910Z,3.78
2017-04-30T23:16:03.220Z,3.54
2017-04-30T23:18:31.576Z,6.08
2017-04-30T23:20:59.881Z,3.88
2017-04-30T23:23:28.185Z,6.16
2017-04-30T23:25:57.281Z,4.54
2017-04-30T23:28:25.588Z,2.94
2017-04-30T23:30:53.895Z,3.26
2017-04-30T23:33:22.249Z,4.40
2017-04-30T23:35:51.299Z,3.92
2017-04-30T23:38:19.608Z,6.02
2017-04-30T23:40:47.975Z,3.34
2017-04-30T23:43:16.276Z,6.20
2017-04-30T23:45:44.576Z,5.10
2017-04-30T23:48:13.668Z,3.34
2017-04-30T23:50:41.973Z,4.00
2017-04-30T23:53:10.276Z,3.34
2017-04-30T23:55:39.660Z,5.44
2017-04-30T23:58:08.700Z,4.42
